sensor_id;sensor_type;location;lat;lon;timestamp;pressure;altitude;pressure_sealevel;temperature;humidity
52137;BME280;69622;49.570;10.986;2023-05-08T00:02:10;98760.00;;;14.79;69.49
52137;BME280;69622;49.570;10.986;2023-05-08T00:05:11;98760.41;;;14.74;69.32
52137;BME280;69622;49.570;10.986;2023-05-08T00:08:12;98762.13;;;14.54;69.58
52137;BME280;69622;49.570;10.986;2023-05-08T00:11:14;98760.88;;;14.58;68.39
52137;BME280;69622;49.570;10.986;2023-05-08T00:14:15;98760.75;;;14.60;68.97
52137;BME280;69622;49.570;10.986;2023-05-08T00:17:17;98755.09;;;14.55;69.49
52137;BME280;69622;49.570;10.986;2023-05-08T00:20:18;98764.78;;;14.43;70.46
52137;BME280;69622;49.570;10.986;2023-05-08T00:23:19;98763.84;;;14.44;69.96
52137;BME280;69622;49.570;10.986;2023-05-08T00:26:22;98755.66;;;14.37;70.21
52137;BME280;69622;49.570;10.986;2023-05-08T00:29:23;98758.16;;;14.39;69.51
52137;BME280;69622;49.570;10.986;2023-05-08T00:32:25;98755.41;;;14.41;70.19
52137;BME280;69622;49.570;10.986;2023-05-08T00:35:26;98760.75;;;14.39;69.52
52137;BME280;69622;49.570;10.986;2023-05-08T00:38:32;98759.09;;;14.38;69.65
52137;BME280;69622;49.570;10.986;2023-05-08T00:41:34;98758.78;;;14.31;70.02
52137;BME280;69622;49.570;10.986;2023-05-08T00:44:35;98763.75;;;14.34;70.21
52137;BME280;69622;49.570;10.986;2023-05-08T00:47:39;98758.06;;;14.29;70.10
52137;BME280;69622;49.570;10.986;2023-05-08T00:50:41;98760.13;;;14.26;70.12
52137;BME280;69622;49.570;10.986;2023-05-08T00:53:43;98769.81;;;14.35;69.70
52137;BME280;69622;49.570;10.986;2023-05-08T00:56:45;98757.81;;;14.32;69.45
52137;BME280;69622;49.570;10.986;2023-05-08T00:59:48;98764.66;;;14.24;69.66
52137;BME280;69622;49.570;10.986;2023-05-08T01:02:50;98762.41;;;14.19;70.33
52137;BME280;69622;49.570;10.986;2023-05-08T01:05:53;98770.84;;;14.23;70.50
52137;BME280;69622;49.570;10.986;2023-05-08T01:08:54;98766.56;;;14.22;69.68
52137;BME280;69622;49.570;10.986;2023-05-08T01:12:28;98777.91;;;14.11;69.33
52137;BME280;69622;49.570;10.986;2023-05-08T01:15:39;98778.88;;;14.10;69.52
52137;BME280;69622;49.570;10.986;2023-05-08T01:18:46;98781.09;;;14.15;70.10
52137;BME280;69622;49.570;10.986;2023-05-08T01:21:56;98784.28;;;13.97;70.24
52137;BME280;69622;49.570;10.986;2023-05-08T01:28:26;98789.09;;;13.81;70.25
52137;BME280;69622;49.570;10.986;2023-05-08T01:35:23;98799.25;;;13.63;69.26
52137;BME280;69622;49.570;10.986;2023-05-08T01:38:31;98800.34;;;13.61;69.44
52137;BME280;69622;49.570;10.986;2023-05-08T01:41:36;98796.19;;;13.58;69.70
52137;BME280;69622;49.570;10.986;2023-05-08T01:44:50;98798.31;;;13.53;70.74
52137;BME280;69622;49.570;10.986;2023-05-08T01:48:21;98805.91;;;13.56;69.74
52137;BME280;69622;49.570;10.986;2023-05-08T01:51:26;98810.94;;;13.48;70.05
52137;BME280;69622;49.570;10.986;2023-05-08T01:54:36;98802.38;;;13.46;69.34
52137;BME280;69622;49.570;10.986;2023-05-08T01:57:44;98806.53;;;13.48;68.91
52137;BME280;69622;49.570;10.986;2023-05-08T02:00:47;98809.03;;;13.39;70.24
52137;BME280;69622;49.570;10.986;2023-05-08T02:03:50;98807.38;;;13.38;70.54
52137;BME280;69622;49.570;10.986;2023-05-08T02:06:52;98811.31;;;13.32;70.48
52137;BME280;69622;49.570;10.986;2023-05-08T02:09:56;98809.91;;;13.28;69.70
52137;BME280;69622;49.570;10.986;2023-05-08T02:13:00;98810.72;;;13.29;69.86
52137;BME280;69622;49.570;10.986;2023-05-08T02:16:02;98811.06;;;13.24;70.26
52137;BME280;69622;49.570;10.986;2023-05-08T02:19:06;98810.47;;;13.32;69.85
52137;BME280;69622;49.570;10.986;2023-05-08T02:22:10;98810.34;;;13.33;70.29
52137;BME280;69622;49.570;10.986;2023-05-08T02:25:13;98816.19;;;13.26;70.81
52137;BME280;69622;49.570;10.986;2023-05-08T02:28:17;98820.31;;;13.17;71.11
52137;BME280;69622;49.570;10.986;2023-05-08T02:31:20;98819.63;;;13.15;70.87
52137;BME280;69622;49.570;10.986;2023-05-08T02:34:23;98823.88;;;13.16;71.61
52137;BME280;69622;49.570;10.986;2023-05-08T02:37:26;98823.53;;;13.21;71.14
52137;BME280;69622;49.570;10.986;2023-05-08T02:40:29;98831.25;;;13.22;71.33
52137;BME280;69622;49.570;10.986;2023-05-08T02:43:32;98826.03;;;13.22;71.87
52137;BME280;69622;49.570;10.986;2023-05-08T02:53:06;98821.88;;;12.97;72.32
52137;BME280;69622;49.570;10.986;2023-05-08T02:56:12;98822.44;;;12.89;72.80
52137;BME280;69622;49.570;10.986;2023-05-08T02:59:22;98830.28;;;12.89;72.98
52137;BME280;69622;49.570;10.986;2023-05-08T03:02:35;98827.19;;;12.84;72.80
52137;BME280;69622;49.570;10.986;2023-05-08T03:05:42;98833.00;;;12.88;73.53
52137;BME280;69622;49.570;10.986;2023-05-08T03:08:49;98835.25;;;12.81;73.59
52137;BME280;69622;49.570;10.986;2023-05-08T03:12:02;98836.31;;;12.90;73.14
52137;BME280;69622;49.570;10.986;2023-05-08T03:15:14;98835.16;;;12.83;73.90
52137;BME280;69622;49.570;10.986;2023-05-08T03:18:20;98828.97;;;12.73;74.23
52137;BME280;69622;49.570;10.986;2023-05-08T03:21:23;98826.47;;;12.71;74.28
52137;BME280;69622;49.570;10.986;2023-05-08T03:24:28;98825.88;;;12.68;74.99
52137;BME280;69622;49.570;10.986;2023-05-08T03:27:31;98830.00;;;12.59;75.50
52137;BME280;69622;49.570;10.986;2023-05-08T03:30:35;98828.84;;;12.63;75.85
52137;BME280;69622;49.570;10.986;2023-05-08T03:33:37;98836.66;;;12.63;75.82
52137;BME280;69622;49.570;10.986;2023-05-08T03:36:39;98836.88;;;12.60;75.36
52137;BME280;69622;49.570;10.986;2023-05-08T03:39:41;98838.81;;;12.69;75.30
52137;BME280;69622;49.570;10.986;2023-05-08T03:42:43;98840.59;;;12.69;75.61
52137;BME280;69622;49.570;10.986;2023-05-08T03:45:45;98839.03;;;12.66;75.32
52137;BME280;69622;49.570;10.986;2023-05-08T03:48:48;98848.66;;;12.66;75.93
52137;BME280;69622;49.570;10.986;2023-05-08T03:51:52;98835.09;;;12.60;75.81
52137;BME280;69622;49.570;10.986;2023-05-08T03:54:55;98834.97;;;12.51;75.86
52137;BME280;69622;49.570;10.986;2023-05-08T03:58:23;98840.19;;;12.51;76.31
52137;BME280;69622;49.570;10.986;2023-05-08T04:01:24;98834.97;;;12.51;76.39
52137;BME280;69622;49.570;10.986;2023-05-08T04:04:43;98840.06;;;12.52;76.17
52137;BME280;69622;49.570;10.986;2023-05-08T04:07:49;98837.47;;;12.52;76.22
52137;BME280;69622;49.570;10.986;2023-05-08T04:11:08;98831.88;;;12.46;76.46
52137;BME280;69622;49.570;10.986;2023-05-08T04:14:15;98832.69;;;12.35;76.41
52137;BME280;69622;49.570;10.986;2023-05-08T04:17:27;98832.81;;;12.45;75.25
52137;BME280;69622;49.570;10.986;2023-05-08T04:20:33;98838.38;;;12.40;75.98
52137;BME280;69622;49.570;10.986;2023-05-08T04:23:35;98841.81;;;12.41;76.26
52137;BME280;69622;49.570;10.986;2023-05-08T04:26:38;98852.00;;;12.33;76.85
52137;BME280;69622;49.570;10.986;2023-05-08T04:29:40;98857.59;;;12.39;76.90
52137;BME280;69622;49.570;10.986;2023-05-08T04:32:42;98855.31;;;12.35;77.65
52137;BME280;69622;49.570;10.986;2023-05-08T04:35:47;98851.84;;;12.23;77.92
52137;BME280;69622;49.570;10.986;2023-05-08T04:38:48;98856.59;;;12.29;78.29
52137;BME280;69622;49.570;10.986;2023-05-08T04:41:49;98861.25;;;12.37;77.43
52137;BME280;69622;49.570;10.986;2023-05-08T04:44:53;98856.28;;;12.34;77.59
52137;BME280;69622;49.570;10.986;2023-05-08T04:47:54;98858.88;;;12.34;78.01
52137;BME280;69622;49.570;10.986;2023-05-08T04:50:55;98866.41;;;12.25;78.51
52137;BME280;69622;49.570;10.986;2023-05-08T04:53:57;98870.91;;;12.23;78.06
52137;BME280;69622;49.570;10.986;2023-05-08T04:56:58;98869.72;;;12.16;78.88
52137;BME280;69622;49.570;10.986;2023-05-08T05:00:00;98876.25;;;12.22;79.04
52137;BME280;69622;49.570;10.986;2023-05-08T05:03:01;98870.75;;;12.14;79.43
52137;BME280;69622;49.570;10.986;2023-05-08T05:06:03;98881.41;;;12.11;78.98
52137;BME280;69622;49.570;10.986;2023-05-08T05:09:04;98878.56;;;12.14;80.65
52137;BME280;69622;49.570;10.986;2023-05-08T05:12:06;98880.97;;;12.17;80.27
52137;BME280;69622;49.570;10.986;2023-05-08T05:15:08;98875.75;;;12.17;80.80
52137;BME280;69622;49.570;10.986;2023-05-08T05:18:10;98881.94;;;12.27;80.62
52137;BME280;69622;49.570;10.986;2023-05-08T05:21:12;98880.16;;;12.27;82.10
52137;BME280;69622;49.570;10.986;2023-05-08T05:24:14;98886.69;;;12.22;80.33
52137;BME280;69622;49.570;10.986;2023-05-08T05:27:15;98879.91;;;12.19;80.45
52137;BME280;69622;49.570;10.986;2023-05-08T05:30:19;98882.78;;;12.27;81.90
52137;BME280;69622;49.570;10.986;2023-05-08T05:33:20;98884.66;;;12.25;82.41
52137;BME280;69622;49.570;10.986;2023-05-08T05:36:21;98883.59;;;12.28;81.06
52137;BME280;69622;49.570;10.986;2023-05-08T05:39:23;98885.50;;;12.26;81.30
52137;BME280;69622;49.570;10.986;2023-05-08T05:42:24;98889.88;;;12.25;80.80
52137;BME280;69622;49.570;10.986;2023-05-08T05:45:26;98885.06;;;12.32;81.75
52137;BME280;69622;49.570;10.986;2023-05-08T05:48:27;98889.53;;;12.30;80.87
52137;BME280;69622;49.570;10.986;2023-05-08T05:51:29;98890.47;;;12.29;80.31
52137;BME280;69622;49.570;10.986;2023-05-08T05:54:30;98896.44;;;12.31;81.04
52137;BME280;69622;49.570;10.986;2023-05-08T05:57:31;98896.34;;;12.33;81.31
52137;BME280;69622;49.570;10.986;2023-05-08T06:00:33;98901.31;;;12.36;80.56
52137;BME280;69622;49.570;10.986;2023-05-08T06:03:35;98898.34;;;12.40;79.70
52137;BME280;69622;49.570;10.986;2023-05-08T06:06:37;98899.66;;;12.35;81.69
52137;BME280;69622;49.570;10.986;2023-05-08T06:09:38;98904.06;;;12.45;81.96
52137;BME280;69622;49.570;10.986;2023-05-08T06:12:39;98908.06;;;12.38;81.43
52137;BME280;69622;49.570;10.986;2023-05-08T06:15:42;98904.53;;;12.39;80.38
52137;BME280;69622;49.570;10.986;2023-05-08T06:18:43;98908.78;;;12.40;81.52
52137;BME280;69622;49.570;10.986;2023-05-08T06:21:44;98904.81;;;12.47;81.91
52137;BME280;69622;49.570;10.986;2023-05-08T06:24:46;98909.31;;;12.56;80.39
52137;BME280;69622;49.570;10.986;2023-05-08T06:27:47;98905.53;;;12.60;81.27
52137;BME280;69622;49.570;10.986;2023-05-08T06:30:49;98909.22;;;12.58;78.73
52137;BME280;69622;49.570;10.986;2023-05-08T06:33:50;98907.69;;;12.67;79.33
52137;BME280;69622;49.570;10.986;2023-05-08T06:36:52;98916.59;;;12.64;79.01
52137;BME280;69622;49.570;10.986;2023-05-08T06:39:53;98916.84;;;12.72;79.63
52137;BME280;69622;49.570;10.986;2023-05-08T06:43:12;98916.63;;;12.86;79.86
52137;BME280;69622;49.570;10.986;2023-05-08T06:46:13;98909.41;;;12.90;81.44
52137;BME280;69622;49.570;10.986;2023-05-08T06:49:15;98908.25;;;12.94;78.37
52137;BME280;69622;49.570;10.986;2023-05-08T06:52:16;98908.13;;;12.96;77.95
52137;BME280;69622;49.570;10.986;2023-05-08T06:55:18;98903.63;;;12.98;78.31
52137;BME280;69622;49.570;10.986;2023-05-08T06:58:20;98897.47;;;13.10;80.13
52137;BME280;69622;49.570;10.986;2023-05-08T07:01:21;98913.16;;;13.21;80.02
52137;BME280;69622;49.570;10.986;2023-05-08T07:04:22;98914.28;;;12.95;81.61
52137;BME280;69622;49.570;10.986;2023-05-08T07:07:24;98902.66;;;12.99;79.97
52137;BME280;69622;49.570;10.986;2023-05-08T07:10:25;98903.28;;;13.13;78.67
52137;BME280;69622;49.570;10.986;2023-05-08T07:13:27;98904.75;;;13.29;78.99
52137;BME280;69622;49.570;10.986;2023-05-08T07:16:28;98905.56;;;13.18;79.99
52137;BME280;69622;49.570;10.986;2023-05-08T07:19:30;98902.22;;;13.38;79.06
52137;BME280;69622;49.570;10.986;2023-05-08T07:22:32;98905.94;;;13.47;79.03
52137;BME280;69622;49.570;10.986;2023-05-08T07:25:33;98909.00;;;13.52;78.71
52137;BME280;69622;49.570;10.986;2023-05-08T07:28:35;98912.91;;;13.69;75.83
52137;BME280;69622;49.570;10.986;2023-05-08T07:31:38;98918.63;;;13.63;77.51
52137;BME280;69622;49.570;10.986;2023-05-08T07:34:41;98909.72;;;13.54;78.53
52137;BME280;69622;49.570;10.986;2023-05-08T07:37:43;98908.75;;;13.55;78.33
52137;BME280;69622;49.570;10.986;2023-05-08T07:40:44;98912.31;;;13.65;77.10
52137;BME280;69622;49.570;10.986;2023-05-08T07:43:46;98911.50;;;13.65;79.15
52137;BME280;69622;49.570;10.986;2023-05-08T07:46:47;98909.44;;;13.91;79.93
52137;BME280;69622;49.570;10.986;2023-05-08T07:49:49;98917.28;;;13.91;77.67
52137;BME280;69622;49.570;10.986;2023-05-08T07:52:51;98910.03;;;13.72;76.96
52137;BME280;69622;49.570;10.986;2023-05-08T07:55:52;98907.72;;;14.01;77.42
52137;BME280;69622;49.570;10.986;2023-05-08T07:58:54;98912.00;;;14.02;74.70
52137;BME280;69622;49.570;10.986;2023-05-08T08:01:55;98908.91;;;14.08;79.16
52137;BME280;69622;49.570;10.986;2023-05-08T08:04:57;98905.19;;;14.22;78.13
52137;BME280;69622;49.570;10.986;2023-05-08T08:07:58;98908.75;;;14.21;78.33
52137;BME280;69622;49.570;10.986;2023-05-08T08:11:00;98909.59;;;14.21;76.73
52137;BME280;69622;49.570;10.986;2023-05-08T08:14:04;98909.66;;;14.31;78.05
52137;BME280;69622;49.570;10.986;2023-05-08T08:17:05;98914.06;;;14.30;75.87
52137;BME280;69622;49.570;10.986;2023-05-08T08:20:07;98915.66;;;14.54;76.59
52137;BME280;69622;49.570;10.986;2023-05-08T08:23:08;98916.94;;;14.27;74.45
52137;BME280;69622;49.570;10.986;2023-05-08T08:26:10;98911.31;;;14.32;75.50
52137;BME280;69622;49.570;10.986;2023-05-08T08:29:11;98912.34;;;14.52;77.62
52137;BME280;69622;49.570;10.986;2023-05-08T08:32:13;98905.38;;;14.62;76.30
52137;BME280;69622;49.570;10.986;2023-05-08T08:35:14;98909.22;;;14.79;75.86
52137;BME280;69622;49.570;10.986;2023-05-08T08:38:17;98913.97;;;14.85;74.11
52137;BME280;69622;49.570;10.986;2023-05-08T08:41:18;98904.50;;;14.73;72.66
52137;BME280;69622;49.570;10.986;2023-05-08T08:44:21;98917.34;;;14.76;73.48
52137;BME280;69622;49.570;10.986;2023-05-08T08:47:27;98908.78;;;14.74;72.66
52137;BME280;69622;49.570;10.986;2023-05-08T08:50:32;98906.25;;;14.83;72.00
52137;BME280;69622;49.570;10.986;2023-05-08T08:53:42;98909.47;;;14.76;72.27
52137;BME280;69622;49.570;10.986;2023-05-08T08:56:44;98902.00;;;14.92;75.27
52137;BME280;69622;49.570;10.986;2023-05-08T08:59:48;98905.53;;;15.02;73.59
52137;BME280;69622;49.570;10.986;2023-05-08T09:02:50;98908.22;;;15.21;70.76
52137;BME280;69622;49.570;10.986;2023-05-08T09:05:52;98907.03;;;15.05;73.46
52137;BME280;69622;49.570;10.986;2023-05-08T09:08:55;98912.38;;;15.24;71.77
52137;BME280;69622;49.570;10.986;2023-05-08T09:11:58;98907.81;;;15.16;72.37
52137;BME280;69622;49.570;10.986;2023-05-08T09:14:59;98909.75;;;15.24;73.37
52137;BME280;69622;49.570;10.986;2023-05-08T09:18:01;98912.16;;;15.37;71.01
52137;BME280;69622;49.570;10.986;2023-05-08T09:21:05;98909.59;;;15.46;72.96
52137;BME280;69622;49.570;10.986;2023-05-08T09:24:06;98910.78;;;15.42;70.84
52137;BME280;69622;49.570;10.986;2023-05-08T09:27:21;98910.38;;;15.37;72.08
52137;BME280;69622;49.570;10.986;2023-05-08T09:30:23;98919.47;;;15.43;71.13
52137;BME280;69622;49.570;10.986;2023-05-08T09:33:26;98910.78;;;15.33;71.45
52137;BME280;69622;49.570;10.986;2023-05-08T09:36:28;98900.59;;;15.39;74.21
52137;BME280;69622;49.570;10.986;2023-05-08T09:39:32;98911.13;;;15.58;71.30
52137;BME280;69622;49.570;10.986;2023-05-08T09:42:37;98908.22;;;15.82;73.11
52137;BME280;69622;49.570;10.986;2023-05-08T09:45:39;98905.63;;;16.02;73.15
52137;BME280;69622;49.570;10.986;2023-05-08T09:48:41;98910.00;;;15.82;70.00
52137;BME280;69622;49.570;10.986;2023-05-08T09:51:52;98910.06;;;15.61;70.54
52137;BME280;69622;49.570;10.986;2023-05-08T09:55:08;98911.25;;;15.87;70.94
52137;BME280;69622;49.570;10.986;2023-05-08T09:58:10;98908.13;;;16.23;69.37
52137;BME280;69622;49.570;10.986;2023-05-08T10:04:33;98917.50;;;16.06;67.93
52137;BME280;69622;49.570;10.986;2023-05-08T10:07:34;98916.13;;;16.11;68.22
52137;BME280;69622;49.570;10.986;2023-05-08T10:10:39;98913.78;;;16.18;65.63
52137;BME280;69622;49.570;10.986;2023-05-08T10:13:40;98916.28;;;16.10;69.17
52137;BME280;69622;49.570;10.986;2023-05-08T10:16:43;98919.03;;;16.18;70.06
52137;BME280;69622;49.570;10.986;2023-05-08T10:19:47;98910.59;;;16.24;66.93
52137;BME280;69622;49.570;10.986;2023-05-08T10:22:49;98907.84;;;16.16;69.57
52137;BME280;69622;49.570;10.986;2023-05-08T10:25:54;98913.09;;;16.16;70.02
52137;BME280;69622;49.570;10.986;2023-05-08T10:28:57;98911.59;;;16.42;71.37
52137;BME280;69622;49.570;10.986;2023-05-08T10:32:01;98905.34;;;16.24;69.21
52137;BME280;69622;49.570;10.986;2023-05-08T10:35:04;98909.53;;;16.27;71.48
52137;BME280;69622;49.570;10.986;2023-05-08T10:38:08;98911.28;;;16.55;71.13
52137;BME280;69622;49.570;10.986;2023-05-08T10:41:10;98906.91;;;16.46;67.74
52137;BME280;69622;49.570;10.986;2023-05-08T10:44:12;98908.00;;;16.43;70.56
52137;BME280;69622;49.570;10.986;2023-05-08T10:50:53;98904.81;;;16.69;69.91
52137;BME280;69622;49.570;10.986;2023-05-08T10:57:11;98902.97;;;16.98;68.42
52137;BME280;69622;49.570;10.986;2023-05-08T11:00:12;98900.34;;;16.98;71.07
52137;BME280;69622;49.570;10.986;2023-05-08T11:03:18;98902.69;;;17.01;67.17
52137;BME280;69622;49.570;10.986;2023-05-08T11:09:46;98899.53;;;16.98;66.87
52137;BME280;69622;49.570;10.986;2023-05-08T11:12:48;98892.97;;;17.21;69.61
52137;BME280;69622;49.570;10.986;2023-05-08T11:15:50;98892.78;;;17.32;65.11
52137;BME280;69622;49.570;10.986;2023-05-08T11:19:17;98894.38;;;17.53;65.28
52137;BME280;69622;49.570;10.986;2023-05-08T11:22:22;98893.47;;;17.72;66.49
52137;BME280;69622;49.570;10.986;2023-05-08T11:25:41;98889.94;;;17.81;66.78
52137;BME280;69622;49.570;10.986;2023-05-08T11:31:54;98898.50;;;17.83;66.07
52137;BME280;69622;49.570;10.986;2023-05-08T11:34:56;98892.22;;;17.93;67.09
52137;BME280;69622;49.570;10.986;2023-05-08T11:38:14;98887.78;;;17.94;64.52
52137;BME280;69622;49.570;10.986;2023-05-08T11:41:23;98886.09;;;17.75;67.18
52137;BME280;69622;49.570;10.986;2023-05-08T11:44:25;98883.31;;;17.77;66.03
52137;BME280;69622;49.570;10.986;2023-05-08T11:47:36;98885.34;;;17.55;65.51
52137;BME280;69622;49.570;10.986;2023-05-08T11:50:38;98892.28;;;17.56;65.10
52137;BME280;69622;49.570;10.986;2023-05-08T11:53:39;98890.75;;;17.54;67.71
52137;BME280;69622;49.570;10.986;2023-05-08T11:56:41;98891.88;;;17.79;65.55
52137;BME280;69622;49.570;10.986;2023-05-08T11:59:42;98887.38;;;17.61;66.72
52137;BME280;69622;49.570;10.986;2023-05-08T12:02:44;98891.38;;;17.75;65.48
52137;BME280;69622;49.570;10.986;2023-05-08T12:05:48;98888.75;;;17.65;67.22
52137;BME280;69622;49.570;10.986;2023-05-08T12:08:50;98891.00;;;17.70;67.03
52137;BME280;69622;49.570;10.986;2023-05-08T12:11:55;98886.66;;;17.96;67.53
52137;BME280;69622;49.570;10.986;2023-05-08T12:14:57;98884.97;;;17.78;65.73
52137;BME280;69622;49.570;10.986;2023-05-08T12:18:01;98886.91;;;17.48;66.39
52137;BME280;69622;49.570;10.986;2023-05-08T12:21:03;98877.94;;;17.41;67.76
52137;BME280;69622;49.570;10.986;2023-05-08T12:24:06;98883.31;;;17.77;66.14
52137;BME280;69622;49.570;10.986;2023-05-08T12:27:11;98884.91;;;17.70;66.51
52137;BME280;69622;49.570;10.986;2023-05-08T12:30:13;98890.53;;;17.65;65.90
52137;BME280;69622;49.570;10.986;2023-05-08T12:33:15;98887.47;;;17.79;65.15
52137;BME280;69622;49.570;10.986;2023-05-08T12:36:17;98889.88;;;17.73;64.39
52137;BME280;69622;49.570;10.986;2023-05-08T12:39:18;98888.44;;;17.78;65.82
52137;BME280;69622;49.570;10.986;2023-05-08T12:42:20;98882.81;;;17.91;66.82
52137;BME280;69622;49.570;10.986;2023-05-08T12:45:26;98887.88;;;18.02;64.65
52137;BME280;69622;49.570;10.986;2023-05-08T12:48:29;98890.56;;;18.10;64.25
52137;BME280;69622;49.570;10.986;2023-05-08T12:51:30;98886.91;;;18.21;64.29
52137;BME280;69622;49.570;10.986;2023-05-08T12:54:36;98888.72;;;18.38;68.21
52137;BME280;69622;49.570;10.986;2023-05-08T12:57:39;98887.72;;;18.57;65.51
52137;BME280;69622;49.570;10.986;2023-05-08T13:00:45;98889.63;;;18.47;64.77
52137;BME280;69622;49.570;10.986;2023-05-08T13:03:51;98883.09;;;18.59;64.60
52137;BME280;69622;49.570;10.986;2023-05-08T13:07:03;98890.06;;;18.78;62.22
52137;BME280;69622;49.570;10.986;2023-05-08T13:10:05;98879.44;;;18.52;64.02
52137;BME280;69622;49.570;10.986;2023-05-08T13:13:07;98883.97;;;18.24;64.90
52137;BME280;69622;49.570;10.986;2023-05-08T13:16:09;98873.38;;;18.34;64.73
52137;BME280;69622;49.570;10.986;2023-05-08T13:19:11;98872.09;;;18.38;63.14
52137;BME280;69622;49.570;10.986;2023-05-08T13:22:12;98872.69;;;18.32;65.32
52137;BME280;69622;49.570;10.986;2023-05-08T13:25:14;98857.03;;;18.30;66.47
52137;BME280;69622;49.570;10.986;2023-05-08T13:28:15;98866.63;;;18.57;65.09
52137;BME280;69622;49.570;10.986;2023-05-08T13:31:17;98864.94;;;18.66;64.00
52137;BME280;69622;49.570;10.986;2023-05-08T13:34:18;98856.75;;;18.77;62.22
52137;BME280;69622;49.570;10.986;2023-05-08T13:37:20;98852.94;;;18.71;61.41
52137;BME280;69622;49.570;10.986;2023-05-08T13:40:22;98851.63;;;18.67;62.15
52137;BME280;69622;49.570;10.986;2023-05-08T13:43:24;98847.84;;;18.70;61.71
52137;BME280;69622;49.570;10.986;2023-05-08T13:46:25;98850.66;;;18.76;61.64
52137;BME280;69622;49.570;10.986;2023-05-08T13:49:26;98838.53;;;18.83;62.90
52137;BME280;69622;49.570;10.986;2023-05-08T13:52:28;98849.25;;;18.82;61.06
52137;BME280;69622;49.570;10.986;2023-05-08T13:55:30;98840.84;;;18.78;61.82
52137;BME280;69622;49.570;10.986;2023-05-08T13:58:32;98846.13;;;18.87;58.69
52137;BME280;69622;49.570;10.986;2023-05-08T14:01:33;98840.34;;;18.83;59.85
52137;BME280;69622;49.570;10.986;2023-05-08T14:04:35;98833.47;;;18.90;61.23
52137;BME280;69622;49.570;10.986;2023-05-08T14:07:36;98843.75;;;18.75;60.69
52137;BME280;69622;49.570;10.986;2023-05-08T14:10:38;98834.28;;;18.91;60.50
52137;BME280;69622;49.570;10.986;2023-05-08T14:13:40;98837.75;;;18.91;59.88
52137;BME280;69622;49.570;10.986;2023-05-08T14:16:44;98837.66;;;18.75;60.52
52137;BME280;69622;49.570;10.986;2023-05-08T14:19:46;98835.69;;;19.03;59.04
52137;BME280;69622;49.570;10.986;2023-05-08T14:22:47;98825.31;;;19.01;59.14
52137;BME280;69622;49.570;10.986;2023-05-08T14:25:49;98828.94;;;18.74;58.99
52137;BME280;69622;49.570;10.986;2023-05-08T14:28:51;98821.59;;;18.86;60.70
52137;BME280;69622;49.570;10.986;2023-05-08T14:31:52;98816.50;;;18.84;62.22
52137;BME280;69622;49.570;10.986;2023-05-08T14:34:54;98817.13;;;18.78;62.05
52137;BME280;69622;49.570;10.986;2023-05-08T14:37:55;98816.81;;;18.81;62.01
52137;BME280;69622;49.570;10.986;2023-05-08T14:40:57;98811.72;;;18.62;61.18
52137;BME280;69622;49.570;10.986;2023-05-08T14:43:58;98812.47;;;18.72;62.95
52137;BME280;69622;49.570;10.986;2023-05-08T14:46:59;98815.75;;;18.74;59.78
52137;BME280;69622;49.570;10.986;2023-05-08T14:50:01;98810.59;;;18.91;61.47
52137;BME280;69622;49.570;10.986;2023-05-08T14:53:02;98798.94;;;19.01;59.42
52137;BME280;69622;49.570;10.986;2023-05-08T14:56:04;98805.13;;;18.84;60.34
52137;BME280;69622;49.570;10.986;2023-05-08T14:59:06;98811.16;;;18.76;60.59
52137;BME280;69622;49.570;10.986;2023-05-08T15:02:08;98807.09;;;18.82;60.94
52137;BME280;69622;49.570;10.986;2023-05-08T15:05:09;98809.50;;;18.75;62.69
52137;BME280;69622;49.570;10.986;2023-05-08T15:08:20;98814.53;;;18.87;63.16
52137;BME280;69622;49.570;10.986;2023-05-08T15:11:21;98814.34;;;18.80;60.29
52137;BME280;69622;49.570;10.986;2023-05-08T15:14:24;98809.59;;;18.92;61.45
52137;BME280;69622;49.570;10.986;2023-05-08T15:17:25;98817.63;;;18.82;63.12
52137;BME280;69622;49.570;10.986;2023-05-08T15:20:26;98806.84;;;19.01;61.71
52137;BME280;69622;49.570;10.986;2023-05-08T15:23:28;98803.06;;;19.04;61.71
52137;BME280;69622;49.570;10.986;2023-05-08T15:26:31;98800.25;;;18.97;59.73
52137;BME280;69622;49.570;10.986;2023-05-08T15:29:33;98808.91;;;19.24;58.06
52137;BME280;69622;49.570;10.986;2023-05-08T15:32:34;98806.03;;;19.01;61.36
52137;BME280;69622;49.570;10.986;2023-05-08T15:35:36;98807.03;;;19.08;59.14
52137;BME280;69622;49.570;10.986;2023-05-08T15:38:38;98803.16;;;18.86;58.89
52137;BME280;69622;49.570;10.986;2023-05-08T15:41:39;98811.22;;;18.84;58.69
52137;BME280;69622;49.570;10.986;2023-05-08T15:44:41;98802.16;;;18.87;60.87
52137;BME280;69622;49.570;10.986;2023-05-08T15:47:55;98806.03;;;18.75;59.43
52137;BME280;69622;49.570;10.986;2023-05-08T15:50:56;98801.59;;;18.75;60.41
52137;BME280;69622;49.570;10.986;2023-05-08T15:53:58;98802.38;;;18.94;59.41
52137;BME280;69622;49.570;10.986;2023-05-08T15:56:59;98800.59;;;19.02;58.75
52137;BME280;69622;49.570;10.986;2023-05-08T16:00:02;98798.56;;;18.88;57.75
52137;BME280;69622;49.570;10.986;2023-05-08T16:03:03;98798.94;;;19.01;57.07
52137;BME280;69622;49.570;10.986;2023-05-08T16:06:05;98804.47;;;18.82;58.23
52137;BME280;69622;49.570;10.986;2023-05-08T16:09:06;98799.84;;;18.84;57.08
52137;BME280;69622;49.570;10.986;2023-05-08T16:12:08;98797.47;;;18.73;57.10
52137;BME280;69622;49.570;10.986;2023-05-08T16:15:09;98799.78;;;18.76;56.04
52137;BME280;69622;49.570;10.986;2023-05-08T16:18:11;98798.84;;;18.59;57.82
52137;BME280;69622;49.570;10.986;2023-05-08T16:21:12;98800.22;;;18.63;56.87
52137;BME280;69622;49.570;10.986;2023-05-08T16:24:14;98791.56;;;18.53;56.21
52137;BME280;69622;49.570;10.986;2023-05-08T16:27:15;98784.69;;;18.60;55.96
52137;BME280;69622;49.570;10.986;2023-05-08T16:30:17;98790.22;;;18.67;52.66